Time;durP1;ratioP1;P1;durP2;ratioP2;P2;SDS_P1;SDS_P2;PMS_P1;PMS_P2;Temp;Humidity;BMP_temperature;BMP_pressure;BME280_temperature;BME280_humidity;BME280_pressure;Samples;Min_cycle;Max_cycle;Signal;HPM_P1;HPM_P2
2022/12/07 00:01:25;;;;;;;33.08;18.45;;;;;;;4.85;91.93;99899.28;5099006;28;20035;-81
2022/12/07 00:03:52;;;;;;;30.52;18.80;;;;;;;5.04;91.32;99903.88;5097385;28;20034;-81
2022/12/07 00:06:18;;;;;;;31.42;19.02;;;;;;;4.91;91.93;99897.56;5096902;28;20039;-81
2022/12/07 00:08:45;;;;;;;33.40;18.50;;;;;;;4.95;91.92;99901.47;5097033;28;20102;-81
2022/12/07 00:11:13;;;;;;;32.28;19.38;;;;;;;4.73;92.26;99901.06;5096950;28;20026;-80
2022/12/07 00:13:39;;;;;;;25.98;15.70;;;;;;;4.82;92.37;99898.91;5095714;28;20047;-81
2022/12/07 00:16:16;;;;;;;30.58;18.90;;;;;;;4.95;91.81;99906.88;5096106;28;20077;-81
2022/12/07 00:18:42;;;;;;;28.00;17.25;;;;;;;5.07;91.40;99903.41;5096667;28;20089;-81
2022/12/07 00:21:13;;;;;;;28.25;18.42;;;;;;;4.94;91.40;99899.00;5097837;28;20515;-81
2022/12/07 00:23:40;;;;;;;29.48;19.13;;;;;;;4.89;91.88;99902.38;5095952;28;20111;-81
2022/12/07 00:26:10;;;;;;;30.85;18.90;;;;;;;5.02;91.53;99901.41;5096762;28;20062;-81
2022/12/07 00:28:37;;;;;;;28.55;16.58;;;;;;;4.97;91.12;99898.53;5093534;28;20028;-81
2022/12/07 00:31:09;;;;;;;24.48;16.05;;;;;;;4.81;92.28;99897.25;5099118;28;20032;-80
2022/12/07 00:33:35;;;;;;;25.10;18.23;;;;;;;5.11;91.15;99900.06;5099392;28;20020;-81
2022/12/07 00:36:04;;;;;;;28.45;16.48;;;;;;;5.00;91.43;99892.69;5097376;28;20058;-80
2022/12/07 00:38:31;;;;;;;30.45;18.73;;;;;;;4.84;92.39;99889.53;5097542;28;20111;-81
2022/12/07 00:40:57;;;;;;;28.85;16.48;;;;;;;4.94;92.44;99882.78;5097665;28;20095;-81
2022/12/07 00:43:23;;;;;;;34.75;17.17;;;;;;;4.97;91.59;99885.88;5100194;28;20134;-81
2022/12/07 00:45:48;;;;;;;28.80;18.38;;;;;;;4.93;91.85;99886.53;5101831;28;20106;-80
2022/12/07 00:48:13;;;;;;;26.30;15.93;;;;;;;4.86;92.30;99887.41;5099186;28;20028;-81
2022/12/07 00:50:39;;;;;;;28.20;19.37;;;;;;;4.94;91.60;99886.31;5102600;28;20284;-81
2022/12/07 00:53:04;;;;;;;29.77;17.43;;;;;;;4.93;91.78;99884.66;5099869;27;20267;-80
2022/12/07 00:55:33;;;;;;;32.73;16.63;;;;;;;4.84;92.59;99877.91;5100449;28;20621;-81
2022/12/07 00:57:58;;;;;;;27.73;19.05;;;;;;;4.94;92.15;99878.22;5098918;28;20942;-81
2022/12/07 01:00:23;;;;;;;24.88;17.63;;;;;;;5.08;92.11;99884.31;5100519;28;20212;-81
2022/12/07 01:02:49;;;;;;;26.75;16.88;;;;;;;5.19;91.21;99876.47;5100269;28;20019;-81
2022/12/07 01:05:14;;;;;;;30.88;17.20;;;;;;;5.19;90.83;99874.59;5100236;28;20040;-81
2022/12/07 01:07:39;;;;;;;25.97;18.97;;;;;;;5.12;91.40;99868.44;5100585;28;20055;-81
2022/12/07 01:10:05;;;;;;;31.47;17.40;;;;;;;5.04;91.71;99871.44;5100525;28;20268;-80
2022/12/07 01:12:31;;;;;;;31.30;17.77;;;;;;;5.17;91.27;99884.81;5099570;28;20259;-81
2022/12/07 01:14:56;;;;;;;28.53;16.87;;;;;;;5.34;90.66;99881.50;5098798;28;20035;-81
2022/12/07 01:17:21;;;;;;;34.53;18.50;;;;;;;5.00;91.37;99877.28;5101241;28;20276;-80
2022/12/07 01:19:46;;;;;;;29.70;17.13;;;;;;;4.84;92.19;99880.59;5099865;28;20475;-81
2022/12/07 01:22:12;;;;;;;28.98;20.38;;;;;;;5.08;92.42;99878.06;5101406;28;20261;-81
2022/12/07 01:24:37;;;;;;;33.78;21.42;;;;;;;5.02;91.99;99875.19;5097805;28;20028;-81
2022/12/07 01:27:02;;;;;;;38.70;21.00;;;;;;;4.96;92.43;99875.28;5100740;28;20032;-81
2022/12/07 01:29:27;;;;;;;35.65;19.65;;;;;;;5.05;92.04;99879.34;5100475;28;20252;-81
2022/12/07 01:31:53;;;;;;;36.35;22.25;;;;;;;4.95;92.93;99868.22;5099995;28;20122;-81
2022/12/07 01:34:18;;;;;;;33.70;17.92;;;;;;;4.90;93.00;99877.00;5100723;28;20055;-81
2022/12/07 01:36:43;;;;;;;37.90;21.47;;;;;;;5.07;92.85;99873.69;5097326;28;20553;-81
2022/12/07 01:39:09;;;;;;;41.17;21.77;;;;;;;5.05;92.30;99878.50;5100355;28;20402;-81
2022/12/07 01:41:40;;;;;;;36.47;23.05;;;;;;;5.01;93.12;99873.56;5100223;28;20508;-80
2022/12/07 01:44:18;;;;;;;38.05;22.63;;;;;;;5.19;92.10;99879.16;5099206;28;20119;-81
2022/12/07 01:46:46;;;;;;;36.00;22.15;;;;;;;5.01;92.91;99876.25;5100618;28;20061;-81
2022/12/07 01:49:37;;;;;;;40.05;22.15;;;;;;;5.02;92.61;99877.91;5098545;28;20483;-81
2022/12/07 01:52:17;;;;;;;36.00;20.75;;;;;;;5.14;92.53;99882.56;5099282;28;20036;-80
2022/12/07 01:54:45;;;;;;;36.92;21.85;;;;;;;4.90;93.51;99875.13;5100420;28;20119;-81
2022/12/07 01:57:13;;;;;;;34.13;21.63;;;;;;;5.25;91.98;99879.09;5100867;28;20036;-81
2022/12/07 01:59:38;;;;;;;37.95;21.55;;;;;;;5.05;92.12;99873.09;5100279;28;20036;-80
2022/12/07 02:02:09;;;;;;;35.33;23.77;;;;;;;5.03;92.78;99876.03;5100575;28;20038;-81
2022/12/07 02:04:35;;;;;;;37.63;22.65;;;;;;;5.13;92.63;99872.78;5099503;28;20034;-81
2022/12/07 02:07:03;;;;;;;32.88;20.10;;;;;;;5.19;92.02;99869.19;5100251;28;20042;-80
2022/12/07 02:09:28;;;;;;;41.47;23.13;;;;;;;5.17;92.19;99865.06;5099770;28;20132;-81
2022/12/07 02:11:55;;;;;;;35.33;22.77;;;;;;;5.15;92.36;99868.00;5101013;28;20043;-81
2022/12/07 02:14:20;;;;;;;34.17;20.27;;;;;;;5.00;92.90;99861.06;5099088;28;20095;-80
2022/12/07 02:17:10;;;;;;;36.88;23.33;;;;;;;5.18;91.78;99862.16;5100662;28;20028;-81
2022/12/07 02:19:35;;;;;;;38.97;23.88;;;;;;;5.27;91.24;99859.13;5099204;28;20053;-80
2022/12/07 02:22:28;;;;;;;37.10;22.53;;;;;;;5.24;91.24;99866.66;5099327;28;20028;-80
2022/12/07 02:25:06;;;;;;;30.77;21.38;;;;;;;5.31;91.04;99860.34;5098005;28;20036;-81
2022/12/07 02:27:46;;;;;;;50.40;23.60;;;;;;;5.22;91.15;99863.34;5099688;28;20481;-80
2022/12/07 02:30:15;;;;;;;41.80;24.95;;;;;;;5.25;90.92;99862.88;5100355;28;20054;-79
2022/12/07 02:32:56;;;;;;;39.63;20.48;;;;;;;5.27;91.98;99864.53;5100319;28;20032;-79
2022/12/07 02:35:30;;;;;;;39.88;27.15;;;;;;;5.30;91.02;99862.22;5099742;28;20127;-79
2022/12/07 02:38:14;;;;;;;33.72;22.63;;;;;;;5.33;90.77;99872.56;5099503;28;20035;-79
2022/12/07 02:41:21;;;;;;;36.33;20.25;;;;;;;5.29;90.56;99867.84;5099526;28;20731;-79
2022/12/07 02:43:52;;;;;;;40.25;24.65;;;;;;;5.09;91.53;99877.00;5098351;28;20080;-79
2022/12/07 02:46:23;;;;;;;37.17;21.60;;;;;;;5.32;91.80;99868.22;5098755;28;20031;-79
2022/12/07 02:48:50;;;;;;;33.47;20.27;;;;;;;5.30;90.97;99867.63;5099680;28;20035;-79
2022/12/07 02:51:18;;;;;;;35.22;22.30;;;;;;;5.21;91.60;99861.69;5098594;28;20039;-79
2022/12/07 02:53:44;;;;;;;41.22;24.27;;;;;;;5.41;90.42;99871.41;5098180;28;20477;-78
2022/12/07 02:56:39;;;;;;;35.33;22.65;;;;;;;5.23;91.30;99867.69;5099660;28;20035;-78
2022/12/07 02:59:26;;;;;;;46.75;24.02;;;;;;;5.18;91.05;99862.16;5099064;28;20049;-78
2022/12/07 03:02:03;;;;;;;37.45;22.48;;;;;;;5.16;91.41;99869.66;5099762;28;20208;-79
2022/12/07 03:04:56;;;;;;;43.72;21.85;;;;;;;5.18;91.40;99870.25;5098167;28;20484;-78
2022/12/07 03:07:39;;;;;;;43.85;26.20;;;;;;;5.40;90.41;99864.38;5099106;28;20408;-78
2022/12/07 03:10:19;;;;;;;44.55;25.42;;;;;;;5.27;91.07;99865.34;5098771;28;20028;-78
2022/12/07 03:12:49;;;;;;;42.13;24.25;;;;;;;5.35;90.81;99875.06;5098110;28;20035;-78
2022/12/07 03:15:21;;;;;;;38.35;23.88;;;;;;;5.30;90.27;99870.31;5098602;28;20484;-77
2022/12/07 03:17:49;;;;;;;39.42;23.60;;;;;;;5.33;90.37;99871.75;5097304;28;20419;-78
2022/12/07 03:20:20;;;;;;;37.30;22.15;;;;;;;5.16;90.45;99871.53;5122988;27;20480;-78
2022/12/07 03:22:47;;;;;;;39.40;22.10;;;;;;;5.31;90.28;99869.25;5097995;28;20472;-79
2022/12/07 03:25:15;;;;;;;38.30;21.15;;;;;;;5.21;90.14;99866.25;5099312;28;20047;-78
2022/12/07 03:27:46;;;;;;;45.67;24.50;;;;;;;5.32;89.58;99868.22;5098041;28;20035;-78
2022/12/07 03:30:20;;;;;;;40.60;23.98;;;;;;;5.11;90.44;99856.81;5097764;28;20542;-81
2022/12/07 03:32:58;;;;;;;36.50;22.90;;;;;;;5.08;90.65;99861.84;5098931;28;20042;-80
2022/12/07 03:35:48;;;;;;;42.08;23.13;;;;;;;5.29;89.97;99870.56;5096902;28;20028;-80
2022/12/07 03:38:23;;;;;;;43.92;24.25;;;;;;;5.35;89.84;99861.53;5097994;28;20131;-81
2022/12/07 03:40:57;;;;;;;40.00;22.60;;;;;;;5.20;89.89;99856.50;5098686;28;20031;-80
2022/12/07 03:43:22;;;;;;;;;;;;;;;5.18;89.79;99864.84;5098556;28;20554;-80
2022/12/07 03:46:05;;;;;;;36.33;21.43;;;;;;;5.11;89.12;99858.69;5097660;28;19916;-80
2022/12/07 03:48:40;;;;;;;33.90;21.73;;;;;;;4.97;89.78;99858.00;5098342;28;20063;-80
2022/12/07 03:51:21;;;;;;;34.13;19.63;;;;;;;5.08;90.15;99867.25;5098615;28;20053;-80
2022/12/07 03:53:54;;;;;;;31.67;19.50;;;;;;;5.04;90.14;99857.94;5097518;28;20043;-80
2022/12/07 03:56:21;;;;;;;32.17;21.15;;;;;;;4.83;90.70;99862.72;5097332;28;20036;-81
2022/12/07 03:58:47;;;;;;;39.92;21.83;;;;;;;5.07;90.58;99868.28;5098129;28;20385;-80
2022/12/07 04:01:12;;;;;;;35.28;21.95;;;;;;;4.88;90.89;99860.19;5097948;28;20032;-80
2022/12/07 04:03:37;;;;;;;35.43;19.77;;;;;;;4.98;90.39;99860.47;5098251;28;20020;-81
2022/12/07 04:06:03;;;;;;;36.95;22.02;;;;;;;4.74;90.39;99863.03;5097958;28;20280;-81
2022/12/07 04:08:28;;;;;;;36.20;20.40;;;;;;;4.94;90.50;99863.88;5098697;28;20027;-81
2022/12/07 04:10:53;;;;;;;36.45;18.52;;;;;;;4.86;90.23;99860.41;5098358;28;20024;-81
2022/12/07 04:13:19;;;;;;;33.45;19.35;;;;;;;4.71;91.05;99863.47;5097132;28;20384;-81
2022/12/07 04:15:44;;;;;;;59.83;25.73;;;;;;;4.86;91.02;99862.31;5098576;28;20039;-80
2022/12/07 04:18:09;;;;;;;38.37;22.37;;;;;;;4.89;90.52;99857.25;5098253;28;20035;-81
2022/12/07 04:20:35;;;;;;;34.35;19.50;;;;;;;4.97;89.97;99856.13;5098527;28;20253;-81
2022/12/07 04:23:00;;;;;;;32.37;19.73;;;;;;;4.97;89.94;99858.00;5098227;28;20099;-80
2022/12/07 04:25:25;;;;;;;35.77;20.10;;;;;;;5.08;89.63;99864.56;5098639;28;20764;-80
2022/12/07 04:27:50;;;;;;;32.23;17.90;;;;;;;4.83;90.31;99858.16;5097912;28;20252;-81
2022/12/07 04:30:16;;;;;;;33.90;21.30;;;;;;;4.85;89.66;99857.94;5098253;28;20259;-80
2022/12/07 04:32:41;;;;;;;30.52;19.40;;;;;;;4.91;90.01;99857.03;5098177;28;20111;-81
2022/12/07 04:35:07;;;;;;;40.53;22.23;;;;;;;4.85;90.76;99849.81;5095888;28;20050;-80
2022/12/07 04:37:33;;;;;;;38.83;21.55;;;;;;;4.84;90.02;99854.41;5097519;28;20337;-80
2022/12/07 04:39:58;;;;;;;39.25;20.55;;;;;;;4.79;89.87;99851.56;5096722;28;20493;-81
2022/12/07 04:42:23;;;;;;;35.97;20.33;;;;;;;4.94;89.50;99853.91;5098913;28;20469;-80
2022/12/07 04:44:48;;;;;;;40.80;20.23;;;;;;;4.72;89.61;99859.72;5096418;28;20613;-81
2022/12/07 04:47:14;;;;;;;39.70;24.57;;;;;;;4.87;90.09;99858.53;5097878;28;20463;-80
2022/12/07 04:49:39;;;;;;;37.70;22.47;;;;;;;4.94;90.41;99859.31;5097835;28;20737;-80
2022/12/07 04:52:04;;;;;;;40.00;21.53;;;;;;;5.00;89.54;99860.28;5097600;28;20286;-80
2022/12/07 04:54:30;;;;;;;38.03;20.45;;;;;;;5.02;89.11;99858.97;5095718;28;20260;-80
2022/12/07 04:56:55;;;;;;;32.85;17.60;;;;;;;4.89;89.65;99849.16;5098632;28;20477;-80
2022/12/07 04:59:20;;;;;;;32.78;18.02;;;;;;;4.70;90.18;99861.00;5097800;28;20795;-80
2022/12/07 05:01:46;;;;;;;34.20;20.70;;;;;;;4.86;89.61;99860.41;5097166;28;20032;-81
2022/12/07 05:04:11;;;;;;;38.42;22.08;;;;;;;4.98;89.02;99860.47;5097947;28;20692;-80
2022/12/07 05:06:36;;;;;;;34.83;22.05;;;;;;;4.97;88.29;99856.13;5097324;28;20032;-80
2022/12/07 05:09:02;;;;;;;34.75;20.02;;;;;;;4.86;89.28;99852.28;5097922;28;20416;-80
2022/12/07 05:11:40;;;;;;;44.08;21.00;;;;;;;5.05;88.78;99846.06;5098787;28;20077;-81
2022/12/07 05:14:11;;;;;;;35.13;19.45;;;;;;;4.84;88.89;99853.59;5098275;28;20044;-80
2022/12/07 05:16:37;;;;;;;37.30;18.30;;;;;;;4.73;89.35;99850.56;5098749;28;20077;-80
2022/12/07 05:19:03;;;;;;;36.00;21.85;;;;;;;4.86;89.50;99852.28;5101357;28;20027;-80
2022/12/07 05:21:28;;;;;;;35.50;22.67;;;;;;;4.84;89.34;99853.59;5101790;28;20042;-81
2022/12/07 05:23:53;;;;;;;33.22;20.13;;;;;;;4.73;89.93;99855.16;5100893;28;20023;-80
2022/12/07 05:26:19;;;;;;;38.97;20.17;;;;;;;4.88;88.93;99854.78;5100695;28;20036;-81
2022/12/07 05:28:44;;;;;;;50.72;19.77;;;;;;;4.94;88.71;99856.59;5101557;28;20031;-81
2022/12/07 05:31:09;;;;;;;37.42;17.25;;;;;;;4.93;88.46;99854.94;5101055;28;20380;-80
2022/12/07 05:33:35;;;;;;;36.13;21.17;;;;;;;4.88;88.72;99857.50;5100955;28;20511;-81
2022/12/07 05:36:05;;;;;;;34.20;18.38;;;;;;;4.95;88.55;99852.84;5100413;28;20074;-81
2022/12/07 05:38:31;;;;;;;32.13;16.90;;;;;;;4.97;88.33;99844.50;5100591;28;20111;-79
2022/12/07 05:41:01;;;;;;;37.58;17.85;;;;;;;4.94;87.97;99850.38;5099976;28;20447;-80
2022/12/07 05:43:26;;;;;;;30.75;17.58;;;;;;;4.86;88.66;99840.69;5099235;28;20535;-81
2022/12/07 05:45:51;;;;;;;31.17;17.33;;;;;;;4.79;88.23;99838.88;5101248;28;20134;-81
2022/12/07 05:48:16;;;;;;;30.70;16.98;;;;;;;4.61;88.98;99841.56;5100062;28;20024;-81
2022/12/07 05:50:42;;;;;;;33.27;17.20;;;;;;;4.67;88.69;99852.31;5100402;28;20161;-81
2022/12/07 05:53:07;;;;;;;31.63;18.13;;;;;;;4.54;89.88;99845.16;5098924;28;20273;-81
2022/12/07 05:55:32;;;;;;;31.07;17.23;;;;;;;4.67;89.42;99848.78;5099983;28;20043;-81
2022/12/07 06:00:41;;;;;;;31.67;16.77;;;;;;;4.54;89.49;99837.03;5099775;28;20747;-81
2022/12/07 06:03:06;;;;;;;35.40;18.87;;;;;;;4.58;89.07;99840.13;5100808;28;20252;-81
2022/12/07 06:05:31;;;;;;;40.03;18.80;;;;;;;4.69;89.09;99830.47;5100118;28;20773;-81
2022/12/07 06:07:57;;;;;;;37.65;20.05;;;;;;;4.61;89.59;99833.44;5098790;28;20324;-81
2022/12/07 06:10:22;;;;;;;35.33;18.50;;;;;;;4.61;88.71;99836.16;5100037;28;20027;-81
2022/12/07 06:12:47;;;;;;;28.95;18.45;;;;;;;4.43;89.59;99835.88;5098802;28;20737;-81
2022/12/07 06:15:13;;;;;;;27.70;18.37;;;;;;;4.63;89.35;99844.84;5099551;28;20035;-81
2022/12/07 06:17:38;;;;;;;32.63;18.60;;;;;;;4.59;89.30;99838.25;5100318;28;20267;-81
2022/12/07 06:20:05;;;;;;;33.60;17.80;;;;;;;4.68;88.99;99847.69;5099026;28;20055;-81
2022/12/07 06:22:30;;;;;;;38.28;19.65;;;;;;;4.74;88.82;99846.00;5100052;28;20028;-81
2022/12/07 06:24:55;;;;;;;32.88;19.45;;;;;;;4.74;88.23;99863.03;5099669;28;20020;-81
2022/12/07 06:27:20;;;;;;;28.52;18.13;;;;;;;4.78;88.35;99863.41;5099537;28;20389;-80
2022/12/07 06:29:46;;;;;;;30.30;19.10;;;;;;;4.79;88.22;99849.69;5100011;28;20023;-81
2022/12/07 06:32:11;;;;;;;33.50;16.95;;;;;;;4.90;87.64;99856.19;5099685;28;20472;-81
2022/12/07 06:34:37;;;;;;;31.20;18.92;;;;;;;4.62;88.24;99851.28;5100589;28;20027;-81
2022/12/07 06:37:03;;;;;;;31.88;18.73;;;;;;;4.78;87.92;99847.19;5099579;28;20031;-81
2022/12/07 06:39:28;;;;;;;31.08;16.23;;;;;;;4.81;87.68;99856.72;5099393;28;20419;-81
2022/12/07 06:41:54;;;;;;;30.63;16.92;;;;;;;4.73;87.57;99858.69;5100685;28;20020;-81
2022/12/07 06:44:21;;;;;;;30.52;17.15;;;;;;;4.71;88.65;99854.53;5098532;28;20237;-81
2022/12/07 06:46:46;;;;;;;26.35;16.55;;;;;;;4.72;88.18;99856.22;5101101;28;20363;-81
2022/12/07 06:49:12;;;;;;;35.85;18.55;;;;;;;4.81;88.19;99860.25;5100381;28;20040;-81
2022/12/07 06:51:40;;;;;;;27.17;14.38;;;;;;;4.73;87.60;99860.53;5098770;28;20042;-81
2022/12/07 06:54:07;;;;;;;27.67;16.90;;;;;;;4.68;87.96;99858.50;5100038;28;20100;-81
2022/12/07 06:56:32;;;;;;;28.52;15.07;;;;;;;4.65;88.44;99864.38;5098890;28;20517;-81
2022/12/07 06:58:57;;;;;;;26.13;15.53;;;;;;;4.71;87.76;99863.47;5100457;28;20110;-81
2022/12/07 07:01:22;;;;;;;25.33;15.88;;;;;;;4.57;88.57;99861.94;5098416;28;20613;-80
2022/12/07 07:03:48;;;;;;;25.40;15.33;;;;;;;4.53;89.08;99857.00;5099455;28;20020;-81
2022/12/07 07:06:13;;;;;;;28.60;14.80;;;;;;;4.66;87.39;99852.50;5097297;28;20283;-80
2022/12/07 07:08:39;;;;;;;23.60;14.43;;;;;;;4.69;87.72;99857.47;5099606;28;20515;-81
2022/12/07 07:11:06;;;;;;;25.30;14.10;;;;;;;4.58;87.99;99858.22;5099616;28;20471;-81
2022/12/07 07:13:31;;;;;;;28.77;15.45;;;;;;;4.58;87.46;99860.91;5099767;28;20574;-81
2022/12/07 07:15:57;;;;;;;24.20;12.85;;;;;;;4.57;87.61;99867.34;5098552;28;20176;-81
2022/12/07 07:18:23;;;;;;;18.30;12.00;;;;;;;4.46;89.06;99861.63;5097662;28;20027;-80
2022/12/07 07:20:50;;;;;;;19.83;12.48;;;;;;;4.75;87.17;99862.00;5098951;28;20153;-80
2022/12/07 07:23:15;;;;;;;22.27;13.18;;;;;;;4.53;87.89;99856.19;5099405;28;20396;-80
2022/12/07 07:25:40;;;;;;;20.73;13.03;;;;;;;4.41;88.34;99864.97;5098175;28;20028;-80
2022/12/07 07:28:06;;;;;;;22.23;13.00;;;;;;;4.62;87.68;99854.84;5098301;28;20305;-81
2022/12/07 07:30:31;;;;;;;20.95;13.95;;;;;;;4.73;87.05;99865.94;5097075;28;20260;-82
2022/12/07 07:32:58;;;;;;;19.65;12.00;;;;;;;4.60;87.74;99861.50;5097374;28;20055;-81
2022/12/07 07:35:24;;;;;;;27.77;13.93;;;;;;;4.50;88.05;99864.69;5097234;28;20032;-81
2022/12/07 07:37:49;;;;;;;22.50;14.00;;;;;;;4.50;87.68;99864.69;5097010;28;20089;-80
2022/12/07 07:40:14;;;;;;;24.13;11.83;;;;;;;4.69;87.40;99868.28;5098186;28;20016;-80
2022/12/07 07:42:39;;;;;;;19.37;10.70;;;;;;;4.67;86.93;99864.97;5099071;28;20634;-81
2022/12/07 07:45:06;;;;;;;20.08;13.07;;;;;;;4.63;86.88;99864.59;5097707;28;20275;-81
2022/12/07 07:47:32;;;;;;;22.25;12.73;;;;;;;4.69;86.79;99865.56;5097868;28;20377;-82
2022/12/07 07:49:57;;;;;;;23.48;13.02;;;;;;;4.67;87.59;99857.72;5096929;28;20047;-81
2022/12/07 07:52:22;;;;;;;24.73;11.93;;;;;;;4.74;86.46;99865.72;5098632;28;20035;-82
2022/12/07 07:54:48;;;;;;;22.98;12.50;;;;;;;4.68;87.05;99866.63;5099639;28;20042;-82
2022/12/07 07:57:13;;;;;;;17.80;10.47;;;;;;;4.63;87.28;99869.16;5099112;28;20040;-82
2022/12/07 07:59:38;;;;;;;21.73;13.00;;;;;;;4.63;87.15;99869.16;5098570;28;20745;-82
2022/12/07 08:02:03;;;;;;;23.03;12.30;;;;;;;4.64;86.93;99870.81;5096159;28;20248;-81
2022/12/07 08:04:29;;;;;;;20.27;10.93;;;;;;;4.83;85.97;99866.25;5097360;28;20256;-81
2022/12/07 08:06:54;;;;;;;18.50;11.17;;;;;;;4.78;85.56;99869.63;5096303;28;20295;-81
2022/12/07 08:09:19;;;;;;;17.40;10.33;;;;;;;4.65;86.50;99872.47;5095959;28;20613;-79
2022/12/07 08:11:45;;;;;;;21.10;10.75;;;;;;;4.73;85.74;99869.47;5098129;28;20313;-80
2022/12/07 08:14:11;;;;;;;18.42;10.65;;;;;;;4.71;86.60;99871.59;5097590;28;20412;-81
2022/12/07 08:16:37;;;;;;;20.45;10.38;;;;;;;4.60;86.53;99867.72;5098241;28;20544;-80
2022/12/07 08:19:04;;;;;;;18.45;9.35;;;;;;;4.36;87.22;99872.09;5097882;28;20430;-81
2022/12/07 08:21:29;;;;;;;18.77;10.07;;;;;;;4.47;86.86;99879.50;5097535;28;20613;-81
2022/12/07 08:23:55;;;;;;;20.48;9.30;;;;;;;4.55;87.15;99886.50;5095968;28;20074;-80
2022/12/07 08:26:20;;;;;;;21.83;12.65;;;;;;;4.60;87.01;99875.00;5097641;28;20418;-82
2022/12/07 08:28:45;;;;;;;17.97;9.43;;;;;;;4.63;86.87;99882.66;5098641;28;20028;-82
2022/12/07 08:31:14;;;;;;;19.65;9.35;;;;;;;4.64;86.64;99879.75;5097300;28;20256;-81
2022/12/07 08:33:40;;;;;;;20.42;10.32;;;;;;;4.66;86.54;99883.03;5098657;28;20042;-81
2022/12/07 08:36:11;;;;;;;16.98;10.80;;;;;;;4.69;87.06;99876.38;5097252;28;20107;-81
2022/12/07 08:38:38;;;;;;;20.92;11.40;;;;;;;4.47;87.08;99879.50;5099458;28;20073;-81
2022/12/07 08:41:03;;;;;;;28.75;12.77;;;;;;;4.60;86.75;99883.09;5097738;28;20040;-79
2022/12/07 08:43:29;;;;;;;18.92;10.95;;;;;;;4.66;87.46;99876.81;5096378;28;20019;-82
2022/12/07 08:46:09;;;;;;;21.88;12.10;;;;;;;4.82;86.54;99882.72;5097623;28;20163;-80
2022/12/07 08:48:39;;;;;;;18.20;9.75;;;;;;;4.55;87.11;99881.09;5098972;28;20084;-81
2022/12/07 08:51:04;;;;;;;23.77;11.23;;;;;;;4.81;86.44;99883.75;5100130;28;20055;-82
2022/12/07 08:53:30;;;;;;;18.33;10.48;;;;;;;4.40;87.63;99878.72;5101602;28;20067;-81
2022/12/07 08:55:57;;;;;;;19.58;10.88;;;;;;;4.63;87.63;99882.66;5101009;28;20032;-82
2022/12/07 08:58:23;;;;;;;20.52;9.45;;;;;;;4.63;87.07;99877.28;5102138;28;20341;-82
2022/12/07 09:00:48;;;;;;;19.75;11.68;;;;;;;5.00;86.30;99880.00;5102830;28;20098;-81
2022/12/07 09:03:13;;;;;;;18.97;11.90;;;;;;;4.98;86.50;99878.59;5101895;28;20059;-81
2022/12/07 09:05:38;;;;;;;20.98;10.90;;;;;;;4.90;86.74;99885.13;5101974;28;20252;-82
2022/12/07 09:08:04;;;;;;;24.60;11.52;;;;;;;4.83;87.32;99881.63;5101486;28;20027;-81
2022/12/07 09:10:30;;;;;;;16.38;9.48;;;;;;;4.87;86.90;99886.38;5099102;28;20030;-81
2022/12/07 09:12:55;;;;;;;28.00;9.65;;;;;;;4.71;87.63;99884.25;5100146;28;20028;-81
2022/12/07 09:15:20;;;;;;;18.48;9.18;;;;;;;4.85;87.19;99879.53;5100681;28;20028;-81
2022/12/07 09:17:46;;;;;;;22.25;10.90;;;;;;;4.80;87.14;99882.91;5100149;27;20480;-81
2022/12/07 09:20:12;;;;;;;20.45;8.93;;;;;;;4.78;87.29;99883.13;5099437;28;20031;-82
2022/12/07 09:22:37;;;;;;;17.73;8.13;;;;;;;4.87;86.96;99888.25;5102140;28;20119;-82
2022/12/07 09:25:04;;;;;;;18.98;9.98;;;;;;;4.91;87.01;99894.88;5101169;28;20499;-81
2022/12/07 09:27:29;;;;;;;18.92;8.70;;;;;;;4.83;87.16;99890.59;5100766;28;20477;-81
2022/12/07 09:29:55;;;;;;;16.98;8.30;;;;;;;4.90;86.46;99885.13;5101678;28;20026;-82
2022/12/07 09:32:21;;;;;;;16.60;7.93;;;;;;;4.91;86.76;99889.47;5098293;28;20349;-81
2022/12/07 09:34:46;;;;;;;19.58;10.05;;;;;;;4.98;86.59;99889.41;5097880;28;20039;-82
2022/12/07 09:37:11;;;;;;;12.23;7.53;;;;;;;4.95;86.45;99896.06;5100098;28;20378;-81
2022/12/07 09:39:40;;;;;;;23.60;11.03;;;;;;;4.78;87.11;99899.34;5096634;28;20287;-83
2022/12/07 09:42:06;;;;;;;22.02;11.18;;;;;;;4.71;87.42;99887.78;5092107;28;20291;-82
2022/12/07 09:44:33;;;;;;;34.75;12.25;;;;;;;4.62;87.25;99886.41;5093372;28;20109;-82
2022/12/07 09:46:59;;;;;;;21.23;11.07;;;;;;;4.45;88.11;99887.00;5100044;28;20039;-81
2022/12/07 09:49:28;;;;;;;20.58;12.30;;;;;;;4.65;88.15;99886.81;5101170;27;20040;-81
2022/12/07 09:52:08;;;;;;;17.35;11.13;;;;;;;4.77;87.52;99884.19;5099044;28;20034;-81
2022/12/07 09:54:37;;;;;;;19.50;12.95;;;;;;;4.62;87.38;99881.00;5099031;28;20114;-81
2022/12/07 09:57:03;;;;;;;22.98;11.77;;;;;;;4.76;86.98;99871.72;5101177;28;20067;-81
2022/12/07 09:59:29;;;;;;;21.58;11.38;;;;;;;4.81;86.75;99873.75;5096854;28;20059;-81
2022/12/07 10:01:55;;;;;;;22.48;11.65;;;;;;;4.92;87.41;99879.47;5099837;28;20031;-81
2022/12/07 10:04:25;;;;;;;25.75;12.52;;;;;;;4.95;86.79;99873.63;5100355;27;20035;-81
2022/12/07 10:06:51;;;;;;;23.63;13.48;;;;;;;4.97;86.93;99861.53;5101123;28;20059;-81
2022/12/07 10:09:19;;;;;;;21.20;12.45;;;;;;;5.19;86.26;99869.19;5099381;28;20075;-81
2022/12/07 10:12:11;;;;;;;24.75;12.80;;;;;;;5.13;85.33;99870.09;5100077;28;20027;-81
2022/12/07 10:14:39;;;;;;;23.85;11.73;;;;;;;4.98;85.80;99874.00;5098779;28;20040;-82
2022/12/07 10:17:29;;;;;;;23.95;13.43;;;;;;;4.84;86.91;99875.22;5100299;28;20118;-81
2022/12/07 10:20:24;;;;;;;21.42;12.18;;;;;;;4.94;86.00;99872.81;5100771;28;20485;-82
2022/12/07 10:23:04;;;;;;;18.98;11.73;;;;;;;5.02;86.21;99866.28;5098781;28;20484;-82
2022/12/07 10:25:35;;;;;;;19.80;11.43;;;;;;;5.12;85.60;99863.03;5098798;28;20036;-81
2022/12/07 10:28:14;;;;;;;19.90;10.75;;;;;;;5.06;85.35;99858.53;5100419;28;20123;-82
2022/12/07 10:31:01;;;;;;;24.25;13.07;;;;;;;5.29;85.02;99863.25;5101017;28;20034;-82
2022/12/07 10:33:50;;;;;;;22.10;10.85;;;;;;;5.26;84.60;99863.72;5098603;28;20039;-82
2022/12/07 10:36:23;;;;;;;21.88;10.35;;;;;;;5.25;85.48;99856.63;5097882;28;20421;-87
2022/12/07 10:38:58;;;;;;;17.52;9.10;;;;;;;5.34;84.93;99849.88;5098131;28;20019;-81
2022/12/07 10:41:23;;;;;;;24.45;9.98;;;;;;;5.19;85.64;99846.72;5098151;28;20392;-82
2022/12/07 10:43:53;;;;;;;20.50;11.10;;;;;;;5.41;84.85;99840.88;5099429;28;20031;-82
2022/12/07 10:46:45;;;;;;;21.13;9.50;;;;;;;5.18;84.87;99840.53;5094313;28;20271;-82
2022/12/07 10:49:23;;;;;;;17.90;9.57;;;;;;;4.99;85.45;99837.81;5095072;28;20035;-83
2022/12/07 10:52:01;;;;;;;22.88;9.35;;;;;;;5.27;85.06;99837.50;5099014;28;20039;-83
2022/12/07 10:55:25;;;;;;;16.10;8.40;;;;;;;5.06;85.11;99837.75;5093428;28;20043;-82
2022/12/07 10:58:21;;;;;;;19.42;8.48;;;;;;;5.41;84.93;99832.75;5089877;27;20046;-83
2022/12/07 11:01:01;;;;;;;17.15;9.02;;;;;;;5.36;84.78;99836.97;5098213;28;20032;-83
2022/12/07 11:03:53;;;;;;;14.60;7.85;;;;;;;5.44;84.80;99833.13;5099521;28;20441;-82
2022/12/07 11:06:37;;;;;;;20.48;7.40;;;;;;;5.66;84.48;99823.66;5098537;28;20039;-81
2022/12/07 11:09:30;;;;;;;16.80;7.57;;;;;;;5.52;84.34;99833.84;5098904;28;20066;-82
2022/12/07 11:12:04;;;;;;;14.23;7.07;;;;;;;5.57;83.74;99817.75;5098512;28;20372;-81
2022/12/07 11:14:41;;;;;;;14.93;7.68;;;;;;;5.61;84.36;99822.47;5097642;28;20062;-80
2022/12/07 11:17:29;;;;;;;17.67;6.55;;;;;;;5.56;83.93;99822.34;5099159;28;20050;-81
2022/12/07 11:20:29;;;;;;;11.88;7.07;;;;;;;5.49;83.69;99817.00;5096884;28;20023;-78
2022/12/07 11:23:34;;;;;;;14.68;6.40;;;;;;;5.54;83.58;99815.50;5099367;28;20119;-79
2022/12/07 11:26:07;;;;;;;10.75;5.30;;;;;;;5.53;84.13;99816.56;5094196;28;20043;-78
2022/12/07 11:28:58;;;;;;;14.10;6.93;;;;;;;5.51;83.94;99807.84;5099279;28;20016;-78
2022/12/07 11:31:28;;;;;;;14.45;7.43;;;;;;;5.53;84.24;99813.88;5098555;28;20019;-79
2022/12/07 11:34:18;;;;;;;16.48;6.78;;;;;;;5.53;84.15;99800.34;5098137;28;20451;-79
2022/12/07 11:36:48;;;;;;;11.95;6.32;;;;;;;5.67;83.65;99796.41;5094414;28;20066;-78
2022/12/07 11:39:37;;;;;;;12.95;5.35;;;;;;;5.72;82.88;99782.97;5097537;28;20077;-78
2022/12/07 11:42:25;;;;;;;10.23;5.40;;;;;;;5.46;83.53;99784.19;5096956;28;20046;-79